Terminal Aerodrome Forecast
Issued by NWS

Home | Current Version | Previous Version | Graphics & Text | Print | Product List | Glossary On
Versions: 1 2 3 4 5 6 7 8 9 10 11 12 13
000
FTUS41 KCLE 211132
TAFFDY
TAF
KFDY 211132Z 2112/2212 26010KT P6SM SCT120
     FM211600 27012G20KT P6SM SCT035
     FM212300 28010KT P6SM BKN025 OVC040=

USA.gov is the U.S. government's official web portal to all federal, state and local government web resources and services.